Terminal Aerodrome Forecast
Issued by NWS

Home | Current Version | Previous Version | Text Only | Print | Product List | Glossary Off
Versions: 1 2 3 4 5 6 7 8 9 10 11 12 13 14 15 16 17 18 19 20 21 22

420
FTUS43 KGRB 191737
TAFCWA
TAF
KCWA 191737Z 1918/2018 11007KT P6SM BKN250
     FM200300 14006KT P6SM VCSH SCT040 BKN100 WS010/16030KT
      TEMPO 2005/2009 3SM TSRA BR OVC025CB
     FM200900 16003KT 5SM -SHRA BR BKN012
      TEMPO 2009/2012 2SM -TSRA OVC008CB
     FM201200 30007KT P6SM SCT015 BKN025=

USA.gov is the U.S. government's official web portal to all federal, state and local government web resources and services.